الصفحة الرئيسية
METAR-TAF:

METAR-TAF

مطار :

فرشاتس, صربيا

دائرة عرض: 45-09N, خط طول: 021-19E, ارتفاع: 83 متر

مراقبة الطقس الحالي

تاريخ ووقت الإصدار 33 دقيقة قبل الساعة 01:00UTC
ريح 18 عقدة من الجنوب/الجنوب الشرقي
درجة الحرارة 8°درجة مئوية
الرطوبة 57%
ضغط 1020 hPa
الرؤية 10 كم أو أكثر
الغيوم لا تقل 1500 م ولا وجود لمزنة ركامية السحاب الأسود

METAR: LYVR 210100Z AUTO 15018KT CAVOK 08/M00 Q1020

زمن: 02:33 (01:33 UTC)

توقعات

تاريخ ووقت الإصدار 2ساعات و 33 دقيقة قبل الساعة 23:00UTC
التوقعات صالحة من21 الساعة 00 UTC إلى 21 الساعة 24 UTC
ريح 14 عقدة من الجنوب/الجنوب الشرقي
الرؤية 10 كم أو أكثر
الغيوم لا تقل 1500 م ولا وجود لمزنة ركامية السحاب الأسود
مؤقت
من 21 الساعة 00 UTC إلى 21 الساعة 24 UTC
ريح 18 عقدة من الجنوب/الجنوب الشرقي تتزايد حتى 28 عقدة

TAF: LYVR 202300Z 2100/2124 16014KT CAVOK TX14/2112Z TN05/2106Z TEMPO 2100/2124 15018G28KT

أرصاد الطقس والتوقعات من أكثر من 4000 مطار (تقارير الطقس للمطار METAR والتنبؤ بالطقس بالمطارTAF).

المحطات المتاحة هي النقط الصفراء والحمراء على الخريطة.

حرك المؤشر فوق النقطة لمعرفة اسم المحطة.

ثم انقر لمعرفة أرصاد وتوقعات الطقس.

لتغيير الخارطة: اضغط على الأزرار الخضراء مع رمز الصليب الأسود للتكبير. على الزر الأخضر مع شرطة للتصغير، أو على الأسهم الخضراء للخرائط المجاورة.


METAR-TAF: